createdAt,value
2017-12-29T00:00:02.683Z,71.67
2017-12-29T00:02:30.133Z,71.36
2017-12-29T00:04:57.598Z,71.44
2017-12-29T00:07:25.002Z,71.60
2017-12-29T00:09:52.506Z,71.77
2017-12-29T00:12:19.970Z,71.85
2017-12-29T00:14:47.378Z,71.54
2017-12-29T00:17:14.872Z,71.78
2017-12-29T00:19:42.291Z,71.94
2017-12-29T00:22:09.711Z,71.91
2017-12-29T00:24:37.149Z,71.65
2017-12-29T00:27:04.615Z,71.88
2017-12-29T00:29:32.031Z,71.95
2017-12-29T00:31:59.455Z,71.88
2017-12-29T00:34:26.977Z,72.51
2017-12-29T00:36:54.378Z,72.04
2017-12-29T00:39:21.884Z,72.49
2017-12-29T00:41:49.339Z,73.51
2017-12-29T00:44:16.797Z,73.10
2017-12-29T00:46:44.255Z,73.01
2017-12-29T00:49:11.664Z,73.03
2017-12-29T00:51:39.163Z,73.54
2017-12-29T00:54:06.586Z,73.57
2017-12-29T00:56:34.012Z,73.73
2017-12-29T00:59:01.415Z,73.24
2017-12-29T01:01:28.854Z,73.43
2017-12-29T01:03:56.270Z,73.92
2017-12-29T01:06:23.681Z,74.26
2017-12-29T01:08:51.098Z,74.21
2017-12-29T01:11:18.615Z,74.06
2017-12-29T01:13:46.074Z,73.98
2017-12-29T01:16:13.502Z,73.88
2017-12-29T01:18:40.899Z,73.40
2017-12-29T01:21:08.339Z,73.48
2017-12-29T01:23:35.752Z,74.00
2017-12-29T01:26:03.259Z,73.66
2017-12-29T01:28:30.687Z,73.78
2017-12-29T01:30:58.091Z,73.55
2017-12-29T01:33:25.504Z,73.32
2017-12-29T01:35:52.931Z,73.29
2017-12-29T01:38:20.337Z,73.34
2017-12-29T01:40:47.798Z,73.44
2017-12-29T01:43:15.259Z,73.20
2017-12-29T01:45:42.668Z,72.98
2017-12-29T01:48:10.071Z,72.57
2017-12-29T01:50:37.773Z,73.07
2017-12-29T01:53:05.278Z,73.20
2017-12-29T01:55:32.678Z,72.93
2017-12-29T01:58:00.194Z,72.62
2017-12-29T02:00:27.618Z,72.37
2017-12-29T02:02:55.014Z,72.66
2017-12-29T02:05:22.451Z,72.53
2017-12-29T02:07:49.855Z,72.82
2017-12-29T02:10:17.261Z,73.00
2017-12-29T02:12:44.682Z,72.85
2017-12-29T02:15:12.090Z,72.74
2017-12-29T02:17:39.494Z,72.77
2017-12-29T02:20:06.915Z,72.50
2017-12-29T02:22:34.331Z,72.79
2017-12-29T02:25:01.739Z,73.03
2017-12-29T02:27:29.162Z,73.02
2017-12-29T02:29:56.595Z,72.97
2017-12-29T02:32:23.995Z,73.33
2017-12-29T02:34:51.403Z,73.32
2017-12-29T02:37:18.842Z,73.39
2017-12-29T02:39:46.247Z,73.21
2017-12-29T02:42:13.706Z,73.26
2017-12-29T02:44:41.131Z,73.39
2017-12-29T02:47:08.542Z,73.54
2017-12-29T02:49:35.958Z,73.55
2017-12-29T02:52:03.434Z,73.26
2017-12-29T02:54:30.885Z,73.24
2017-12-29T02:56:58.302Z,73.14
2017-12-29T02:59:25.896Z,73.34
2017-12-29T03:01:53.363Z,73.21
2017-12-29T03:04:20.815Z,72.96
2017-12-29T03:06:48.226Z,73.07
2017-12-29T03:09:15.637Z,73.32
2017-12-29T03:11:43.077Z,73.67
2017-12-29T03:14:10.484Z,74.15
2017-12-29T03:16:37.898Z,74.20
2017-12-29T03:19:05.328Z,74.43
2017-12-29T03:21:32.746Z,74.66
2017-12-29T03:24:00.142Z,74.59
2017-12-29T03:26:27.561Z,74.63
2017-12-29T03:28:54.970Z,74.80
2017-12-29T03:31:22.371Z,74.60
2017-12-29T03:33:49.790Z,74.64
2017-12-29T03:36:17.186Z,74.42
2017-12-29T03:38:44.627Z,74.49
2017-12-29T03:41:12.032Z,74.32
2017-12-29T03:43:39.447Z,74.00
2017-12-29T03:46:06.877Z,73.84
2017-12-29T03:48:34.278Z,73.87
2017-12-29T03:51:01.787Z,73.99
2017-12-29T03:53:29.214Z,73.92
2017-12-29T03:55:57.098Z,73.83
2017-12-29T03:58:24.562Z,73.98
2017-12-29T04:00:51.998Z,74.08
2017-12-29T04:03:19.403Z,74.38
2017-12-29T04:05:46.810Z,74.80
2017-12-29T04:08:14.280Z,75.02
2017-12-29T04:10:41.674Z,75.44
2017-12-29T04:13:09.074Z,75.58
2017-12-29T04:15:36.559Z,75.53
2017-12-29T04:18:03.962Z,75.72
2017-12-29T04:20:31.366Z,75.87
2017-12-29T04:22:58.787Z,75.84
2017-12-29T04:25:26.184Z,75.79
2017-12-29T04:27:53.631Z,75.81
2017-12-29T04:30:21.098Z,75.99
2017-12-29T04:32:48.551Z,76.37
2017-12-29T04:35:15.971Z,76.49
2017-12-29T04:37:43.419Z,76.59
2017-12-29T04:40:10.822Z,76.55
2017-12-29T04:42:38.233Z,76.07
2017-12-29T04:45:05.639Z,76.01
2017-12-29T04:47:33.058Z,75.75
2017-12-29T04:50:00.459Z,75.89
2017-12-29T04:52:27.863Z,75.53
2017-12-29T04:54:55.364Z,75.30
2017-12-29T04:57:22.765Z,75.50
2017-12-29T04:59:50.170Z,75.30
2017-12-29T05:02:17.605Z,74.95
2017-12-29T05:04:45.008Z,75.03
2017-12-29T05:07:12.439Z,75.11
2017-12-29T05:09:40.974Z,75.14
2017-12-29T05:12:08.378Z,74.75
2017-12-29T05:14:35.840Z,74.79
2017-12-29T05:17:03.294Z,74.70
2017-12-29T05:19:30.699Z,74.67
2017-12-29T05:21:58.106Z,74.99
2017-12-29T05:24:25.523Z,75.38
2017-12-29T05:26:53.005Z,75.41
2017-12-29T05:29:20.476Z,75.85
2017-12-29T05:31:47.851Z,75.75
2017-12-29T05:34:15.247Z,75.78
2017-12-29T05:36:42.678Z,75.91
2017-12-29T05:39:10.083Z,75.87
2017-12-29T05:41:37.476Z,76.16
2017-12-29T05:44:04.916Z,75.99
2017-12-29T05:46:32.366Z,76.02
2017-12-29T05:48:59.762Z,75.88
2017-12-29T05:51:27.191Z,75.87
2017-12-29T05:53:54.591Z,75.52
2017-12-29T05:56:21.995Z,75.62
2017-12-29T05:58:49.446Z,75.31
2017-12-29T06:01:16.851Z,75.27
2017-12-29T06:03:44.358Z,75.06
2017-12-29T06:06:11.794Z,75.21
2017-12-29T06:08:39.187Z,74.89
2017-12-29T06:11:06.623Z,74.78
2017-12-29T06:13:34.048Z,75.11
2017-12-29T06:16:01.446Z,74.78
2017-12-29T06:18:28.886Z,74.60
2017-12-29T06:20:56.286Z,74.46
2017-12-29T06:23:23.723Z,74.58
2017-12-29T06:25:51.144Z,74.48
2017-12-29T06:28:18.592Z,74.42
2017-12-29T06:30:46.079Z,74.62
2017-12-29T06:33:13.483Z,74.47
2017-12-29T06:35:40.918Z,74.70
2017-12-29T06:38:08.314Z,74.66
2017-12-29T06:40:35.728Z,74.53
2017-12-29T06:43:03.166Z,74.53
2017-12-29T06:45:30.567Z,74.99
2017-12-29T06:47:57.976Z,74.46
2017-12-29T06:50:25.428Z,74.40
2017-12-29T06:52:52.834Z,74.62
2017-12-29T06:55:20.248Z,74.62
2017-12-29T06:57:47.670Z,74.43
2017-12-29T07:00:15.075Z,74.37
2017-12-29T07:02:42.600Z,74.10
2017-12-29T07:05:10.009Z,73.86
2017-12-29T07:07:37.438Z,74.01
2017-12-29T07:10:04.844Z,73.65
2017-12-29T07:12:32.283Z,73.74
2017-12-29T07:14:59.782Z,73.84
2017-12-29T07:17:27.255Z,73.95
2017-12-29T07:19:54.693Z,73.94
2017-12-29T07:22:22.109Z,73.83
2017-12-29T07:24:49.714Z,73.68
2017-12-29T07:27:17.119Z,77.16
2017-12-29T07:29:44.526Z,72.97
2017-12-29T07:32:11.951Z,72.00
2017-12-29T07:34:39.697Z,72.92
2017-12-29T07:37:07.217Z,73.26
2017-12-29T07:39:34.630Z,73.24
2017-12-29T07:42:02.106Z,73.15
2017-12-29T07:44:29.680Z,73.30
2017-12-29T07:46:57.150Z,73.49
2017-12-29T07:49:24.630Z,73.31
2017-12-29T07:51:52.062Z,73.40
2017-12-29T07:54:19.474Z,73.49
2017-12-29T07:56:46.894Z,73.38
2017-12-29T07:59:14.326Z,73.20
2017-12-29T08:01:41.734Z,73.30
2017-12-29T08:04:09.142Z,73.12
2017-12-29T08:06:36.643Z,73.44
2017-12-29T08:09:04.049Z,73.01
2017-12-29T08:11:31.458Z,73.18
2017-12-29T08:13:58.976Z,73.17
2017-12-29T08:16:26.390Z,73.44
2017-12-29T08:18:53.891Z,73.39
2017-12-29T08:21:21.323Z,73.36
2017-12-29T08:23:48.735Z,73.35
2017-12-29T08:26:16.145Z,73.44
2017-12-29T08:28:43.559Z,73.36
2017-12-29T08:31:11.071Z,73.54
2017-12-29T08:33:38.479Z,73.41
2017-12-29T08:36:05.894Z,73.50
2017-12-29T08:38:33.298Z,73.41
2017-12-29T08:41:00.706Z,73.42
2017-12-29T08:43:28.259Z,73.38
2017-12-29T08:45:55.672Z,73.23
2017-12-29T08:48:23.085Z,73.19
2017-12-29T08:50:50.529Z,72.96
2017-12-29T08:53:17.930Z,73.04
2017-12-29T08:55:45.351Z,72.97
2017-12-29T08:58:12.792Z,72.72
2017-12-29T09:00:40.276Z,72.79
2017-12-29T09:03:07.691Z,72.88
2017-12-29T09:05:35.091Z,73.04
2017-12-29T09:08:02.503Z,73.12
2017-12-29T09:10:29.966Z,73.13
2017-12-29T09:12:57.406Z,72.86
2017-12-29T09:15:24.815Z,73.32
2017-12-29T09:17:52.223Z,73.09
2017-12-29T09:20:19.656Z,72.61
2017-12-29T09:22:47.062Z,72.67
2017-12-29T09:25:14.506Z,72.85
2017-12-29T09:27:41.927Z,72.26
2017-12-29T09:30:09.335Z,71.92
2017-12-29T09:32:36.777Z,72.86
2017-12-29T09:35:04.186Z,71.36
2017-12-29T09:37:31.586Z,71.28
2017-12-29T09:39:59.011Z,70.92
2017-12-29T09:42:26.423Z,70.35
2017-12-29T09:44:54.419Z,70.71
2017-12-29T09:47:21.822Z,71.19
2017-12-29T09:49:49.236Z,71.10
2017-12-29T09:52:16.807Z,71.09
2017-12-29T09:54:44.231Z,71.21
2017-12-29T09:57:11.659Z,71.53
2017-12-29T09:59:39.223Z,71.59
2017-12-29T10:02:06.630Z,71.23
2017-12-29T10:04:34.125Z,71.29
2017-12-29T10:07:01.547Z,70.78
2017-12-29T10:09:28.980Z,70.88
2017-12-29T10:11:56.392Z,70.64
2017-12-29T10:14:23.804Z,70.83
2017-12-29T10:16:51.230Z,70.50
2017-12-29T10:19:18.651Z,70.95
2017-12-29T10:21:46.059Z,70.74
2017-12-29T10:24:13.495Z,70.70
2017-12-29T10:26:40.911Z,70.43
2017-12-29T10:29:08.338Z,70.27
2017-12-29T10:31:35.749Z,70.47
2017-12-29T10:34:03.167Z,70.23
2017-12-29T10:36:30.571Z,70.06
2017-12-29T10:38:58.111Z,69.95
2017-12-29T10:41:25.663Z,69.64
2017-12-29T10:43:53.060Z,69.54
2017-12-29T10:46:20.494Z,69.45
2017-12-29T10:48:47.899Z,69.34
2017-12-29T10:51:15.389Z,69.17
2017-12-29T10:53:42.815Z,69.05
2017-12-29T10:56:10.218Z,68.91
2017-12-29T10:58:37.627Z,68.62
2017-12-29T11:01:05.067Z,68.95
2017-12-29T11:03:32.486Z,68.65
2017-12-29T11:05:59.945Z,68.62
2017-12-29T11:08:27.382Z,68.36
2017-12-29T11:10:54.851Z,68.09
2017-12-29T11:13:22.256Z,68.08
2017-12-29T11:15:49.753Z,67.60
2017-12-29T11:18:17.247Z,67.58
2017-12-29T11:20:44.646Z,67.41
2017-12-29T11:23:12.087Z,67.39
2017-12-29T11:25:39.495Z,67.14
2017-12-29T11:28:06.955Z,67.54
2017-12-29T11:30:34.389Z,68.02
2017-12-29T11:33:01.863Z,68.00
2017-12-29T11:35:29.308Z,67.80
2017-12-29T11:37:56.732Z,67.56
2017-12-29T11:40:24.231Z,67.67
2017-12-29T11:42:51.643Z,67.49
2017-12-29T11:45:19.163Z,67.49
2017-12-29T11:47:46.542Z,67.34
2017-12-29T11:50:13.946Z,68.01
2017-12-29T11:52:41.390Z,68.08
2017-12-29T11:55:08.803Z,68.38
2017-12-29T11:57:36.213Z,68.12
2017-12-29T12:00:03.655Z,68.08
2017-12-29T12:02:31.062Z,67.78
2017-12-29T12:04:59.319Z,67.53
2017-12-29T12:07:26.743Z,67.66
2017-12-29T12:09:54.159Z,67.30
2017-12-29T12:12:21.604Z,67.02
2017-12-29T12:14:49.031Z,66.97
2017-12-29T12:17:16.443Z,66.66
2017-12-29T12:19:43.875Z,67.17
2017-12-29T12:22:11.282Z,66.93
2017-12-29T12:24:38.687Z,67.05
2017-12-29T12:27:06.128Z,67.60
2017-12-29T12:29:33.539Z,67.26
2017-12-29T12:32:01.036Z,67.30
2017-12-29T12:34:28.450Z,67.29
2017-12-29T12:36:55.870Z,67.53
2017-12-29T12:39:23.292Z,67.79
2017-12-29T12:41:50.723Z,67.40
2017-12-29T12:44:18.143Z,67.61
2017-12-29T12:46:45.582Z,67.80
2017-12-29T12:49:13.027Z,67.90
2017-12-29T12:51:40.478Z,67.42
2017-12-29T12:54:07.903Z,67.69
2017-12-29T12:56:35.331Z,67.56
2017-12-29T12:59:02.743Z,67.67
2017-12-29T13:01:30.155Z,67.83
2017-12-29T13:03:57.599Z,66.76
2017-12-29T13:06:25.020Z,66.70
2017-12-29T13:08:52.441Z,66.75
2017-12-29T13:11:19.966Z,66.49
2017-12-29T13:13:47.379Z,66.68
2017-12-29T13:16:14.802Z,66.72
2017-12-29T13:18:42.254Z,67.05
2017-12-29T13:21:09.662Z,67.08
2017-12-29T13:23:37.108Z,66.86
2017-12-29T13:26:04.559Z,67.05
2017-12-29T13:28:32.000Z,67.18
2017-12-29T13:30:59.496Z,66.95
2017-12-29T13:33:26.935Z,66.95
2017-12-29T13:35:54.348Z,66.90
2017-12-29T13:38:21.763Z,66.45
2017-12-29T13:40:49.216Z,66.61
2017-12-29T13:43:16.634Z,66.72
2017-12-29T13:45:44.096Z,66.69
2017-12-29T13:48:11.555Z,66.19
2017-12-29T13:50:38.958Z,65.61
2017-12-29T13:53:06.411Z,65.88
2017-12-29T13:55:33.858Z,65.69
2017-12-29T13:58:01.281Z,65.74
2017-12-29T14:00:28.720Z,66.17
2017-12-29T14:02:56.167Z,66.37
2017-12-29T14:05:23.591Z,66.58
2017-12-29T14:07:51.076Z,66.49
2017-12-29T14:10:19.433Z,66.84
2017-12-29T14:12:46.875Z,66.98
2017-12-29T14:15:14.279Z,66.75
2017-12-29T14:17:41.690Z,66.73
2017-12-29T14:20:09.150Z,66.91
2017-12-29T14:22:36.561Z,66.72
2017-12-29T14:25:03.978Z,66.83
2017-12-29T14:27:31.419Z,66.99
2017-12-29T14:29:58.827Z,67.33
2017-12-29T14:32:26.334Z,67.25
2017-12-29T14:34:54.180Z,67.49
2017-12-29T14:37:21.575Z,67.71
2017-12-29T14:39:48.983Z,67.53
2017-12-29T14:42:16.408Z,67.83
2017-12-29T14:44:43.804Z,67.90
2017-12-29T14:47:11.274Z,68.11
2017-12-29T14:49:38.705Z,68.29
2017-12-29T14:52:06.099Z,68.20
2017-12-29T14:54:33.539Z,68.63
2017-12-29T14:57:00.989Z,68.77
2017-12-29T14:59:28.386Z,69.20
2017-12-29T15:01:55.972Z,69.64
2017-12-29T15:04:23.380Z,69.76
2017-12-29T15:06:50.782Z,69.88
2017-12-29T15:09:18.211Z,70.47
2017-12-29T15:11:45.624Z,70.70
2017-12-29T15:14:13.031Z,70.88
2017-12-29T15:16:40.459Z,70.94
2017-12-29T15:19:07.866Z,71.30
2017-12-29T15:21:35.263Z,71.49
2017-12-29T15:24:02.706Z,71.75
2017-12-29T15:26:30.110Z,71.88
2017-12-29T15:28:57.535Z,72.22
2017-12-29T15:31:24.975Z,72.45
2017-12-29T15:33:52.399Z,72.60
2017-12-29T15:36:19.815Z,72.83
2017-12-29T15:38:47.245Z,72.93
2017-12-29T15:41:14.715Z,73.26
2017-12-29T15:43:42.192Z,73.35
2017-12-29T15:46:09.623Z,73.67
2017-12-29T15:48:37.031Z,73.17
2017-12-29T15:51:04.465Z,73.45
2017-12-29T15:53:31.884Z,73.52
2017-12-29T15:55:59.348Z,73.74
2017-12-29T15:58:26.880Z,73.85
2017-12-29T16:00:56.898Z,73.89
2017-12-29T16:03:24.320Z,74.24
2017-12-29T16:05:51.851Z,74.56
2017-12-29T16:08:19.262Z,74.67
2017-12-29T16:10:46.683Z,74.80
2017-12-29T16:13:14.135Z,74.84
2017-12-29T16:15:41.531Z,74.93
2017-12-29T16:18:08.943Z,75.03
2017-12-29T16:20:36.398Z,75.00
2017-12-29T16:23:03.824Z,74.52
2017-12-29T16:25:31.234Z,74.56
2017-12-29T16:27:58.654Z,74.46
2017-12-29T16:30:26.084Z,74.53
2017-12-29T16:32:53.526Z,74.65
2017-12-29T16:35:21.085Z,74.49
2017-12-29T16:37:48.472Z,74.35
2017-12-29T16:40:15.894Z,74.53
2017-12-29T16:42:43.306Z,74.45
2017-12-29T16:45:10.785Z,74.43
2017-12-29T16:47:38.299Z,74.21
2017-12-29T16:50:05.702Z,74.10
2017-12-29T16:55:23.758Z,74.29
2017-12-29T16:57:51.164Z,74.52
2017-12-29T17:00:18.643Z,74.46
2017-12-29T17:02:46.083Z,74.61
2017-12-29T17:05:13.500Z,74.93
2017-12-29T17:07:40.918Z,74.77
2017-12-29T17:10:08.363Z,75.07
2017-12-29T17:12:35.803Z,74.66
2017-12-29T17:15:03.220Z,74.82
2017-12-29T17:17:30.675Z,74.85
2017-12-29T17:19:58.100Z,74.67
2017-12-29T17:22:25.531Z,74.53
2017-12-29T17:24:52.980Z,74.71
2017-12-29T17:27:20.396Z,74.29
2017-12-29T17:29:47.821Z,74.57
2017-12-29T17:32:15.267Z,74.63
2017-12-29T17:34:42.683Z,74.68
2017-12-29T17:37:10.110Z,74.87
2017-12-29T17:39:37.536Z,74.92
2017-12-29T17:42:05.000Z,75.11
2017-12-29T17:44:32.386Z,75.19
2017-12-29T17:46:59.820Z,75.21
2017-12-29T17:49:27.224Z,75.45
2017-12-29T17:51:54.648Z,75.47
2017-12-29T17:54:22.086Z,75.44
2017-12-29T17:56:49.501Z,75.79
2017-12-29T17:59:16.898Z,75.99
2017-12-29T18:01:44.350Z,76.19
2017-12-29T18:04:11.759Z,76.28
2017-12-29T18:06:39.259Z,76.42
2017-12-29T18:09:06.706Z,76.31
2017-12-29T18:11:34.115Z,76.43
2017-12-29T18:14:01.924Z,76.40
2017-12-29T18:16:29.482Z,76.24
2017-12-29T18:18:56.876Z,76.09
2017-12-29T18:21:24.301Z,76.24
2017-12-29T18:23:51.791Z,76.17
2017-12-29T18:26:19.253Z,76.28
2017-12-29T18:28:46.678Z,76.23
2017-12-29T18:31:14.417Z,76.14
2017-12-29T18:33:41.967Z,76.15
2017-12-29T18:36:09.450Z,76.18
2017-12-29T18:38:36.914Z,76.54
2017-12-29T18:41:04.333Z,76.21
2017-12-29T18:43:31.821Z,76.48
2017-12-29T18:45:59.227Z,76.28
2017-12-29T18:48:26.611Z,76.50
2017-12-29T18:50:54.190Z,76.62
2017-12-29T18:53:21.599Z,76.65
2017-12-29T18:55:49.016Z,76.75
2017-12-29T18:58:16.431Z,76.69
2017-12-29T19:00:43.915Z,76.61
2017-12-29T19:03:11.395Z,76.63
2017-12-29T19:05:38.934Z,76.58
2017-12-29T19:08:06.376Z,76.58
2017-12-29T19:10:33.785Z,76.60
2017-12-29T19:13:01.207Z,76.75
2017-12-29T19:15:28.610Z,76.62
2017-12-29T19:17:56.116Z,76.64
2017-12-29T19:20:23.530Z,76.48
2017-12-29T19:22:50.923Z,76.78
2017-12-29T19:25:18.395Z,76.35
2017-12-29T19:27:45.799Z,76.59
2017-12-29T19:30:13.217Z,76.69
2017-12-29T19:32:40.663Z,76.83
2017-12-29T19:35:08.097Z,76.38
2017-12-29T19:37:35.670Z,76.43
2017-12-29T19:40:03.080Z,76.10
2017-12-29T19:42:30.597Z,75.95
2017-12-29T19:44:58.006Z,75.91
2017-12-29T19:47:25.405Z,76.19
2017-12-29T19:49:52.822Z,75.92
2017-12-29T19:52:20.317Z,76.13
2017-12-29T19:54:47.790Z,76.18
2017-12-29T19:57:15.222Z,76.21
2017-12-29T19:59:42.613Z,76.25
2017-12-29T20:02:10.033Z,76.36
2017-12-29T20:04:37.474Z,76.65
2017-12-29T20:07:04.950Z,76.81
2017-12-29T20:09:32.351Z,76.87
2017-12-29T20:11:59.874Z,76.97
2017-12-29T20:14:27.321Z,77.11
2017-12-29T20:16:54.731Z,77.31
2017-12-29T20:19:22.244Z,77.37
2017-12-29T20:21:49.647Z,77.47
2017-12-29T20:24:17.084Z,77.47
2017-12-29T20:26:44.694Z,77.54
2017-12-29T20:29:12.092Z,77.80
2017-12-29T20:31:39.518Z,77.87
2017-12-29T20:34:06.951Z,78.00
2017-12-29T20:36:34.354Z,78.00
2017-12-29T20:39:01.803Z,78.21
2017-12-29T20:41:29.228Z,78.22
2017-12-29T20:43:56.642Z,78.21
2017-12-29T20:46:24.060Z,78.09
2017-12-29T20:48:51.551Z,78.24
2017-12-29T20:51:18.942Z,78.00
2017-12-29T20:53:46.354Z,78.37
2017-12-29T20:56:13.797Z,78.45
2017-12-29T20:58:41.206Z,78.38
2017-12-29T21:01:08.711Z,78.70
2017-12-29T21:03:36.133Z,78.64
2017-12-29T21:06:03.538Z,78.47
2017-12-29T21:08:30.984Z,78.53
2017-12-29T21:10:58.421Z,78.65
2017-12-29T21:13:25.850Z,79.14
2017-12-29T21:15:53.266Z,78.77
2017-12-29T21:18:20.706Z,78.80
2017-12-29T21:20:48.170Z,78.75
2017-12-29T21:23:15.578Z,78.65
2017-12-29T21:25:42.993Z,78.37
2017-12-29T21:28:10.454Z,78.30
2017-12-29T21:30:37.887Z,78.29
2017-12-29T21:33:05.305Z,78.30
2017-12-29T21:35:32.891Z,78.07
2017-12-29T21:38:00.291Z,77.99
2017-12-29T21:40:27.715Z,78.18
2017-12-29T21:42:55.156Z,77.90
2017-12-29T21:45:22.564Z,77.80
2017-12-29T21:47:50.074Z,77.78
2017-12-29T21:50:17.511Z,77.95
2017-12-29T21:52:45.008Z,77.93
2017-12-29T21:55:12.454Z,77.46
2017-12-29T21:57:39.862Z,77.24
2017-12-29T22:00:07.374Z,77.19
2017-12-29T22:02:34.799Z,77.46
2017-12-29T22:05:02.211Z,77.12
2017-12-29T22:07:29.620Z,77.07
2017-12-29T22:09:57.071Z,77.08
2017-12-29T22:12:24.482Z,76.80
2017-12-29T22:14:51.914Z,76.83
2017-12-29T22:17:19.368Z,76.51
2017-12-29T22:19:46.775Z,76.67
2017-12-29T22:22:14.180Z,76.71
2017-12-29T22:24:41.646Z,76.80
2017-12-29T22:27:09.096Z,76.63
2017-12-29T22:29:36.539Z,76.69
2017-12-29T22:32:03.959Z,76.63
2017-12-29T22:34:31.458Z,76.63
2017-12-29T22:36:58.977Z,76.68
2017-12-29T22:39:26.374Z,76.80
2017-12-29T22:41:53.780Z,76.62
2017-12-29T22:44:21.194Z,76.50
2017-12-29T22:46:48.628Z,76.25
2017-12-29T22:49:16.205Z,76.38
2017-12-29T22:51:43.687Z,76.50
2017-12-29T22:54:11.127Z,76.42
2017-12-29T22:56:38.534Z,76.15
2017-12-29T22:59:05.944Z,76.69
2017-12-29T23:01:33.367Z,76.33
2017-12-29T23:04:00.775Z,76.23
2017-12-29T23:06:28.207Z,76.79
2017-12-29T23:08:55.632Z,76.58
2017-12-29T23:11:23.051Z,76.54
2017-12-29T23:13:50.582Z,76.86
2017-12-29T23:16:17.991Z,76.29
2017-12-29T23:18:45.423Z,76.39
2017-12-29T23:21:12.938Z,76.47
2017-12-29T23:23:40.351Z,76.61
2017-12-29T23:26:07.782Z,76.81
2017-12-29T23:28:35.197Z,76.42
2017-12-29T23:31:02.619Z,76.76
2017-12-29T23:33:30.071Z,76.71
2017-12-29T23:35:57.478Z,77.23
2017-12-29T23:38:24.923Z,76.71
2017-12-29T23:40:52.343Z,76.56
2017-12-29T23:43:19.750Z,76.90
2017-12-29T23:45:47.166Z,76.78
2017-12-29T23:48:14.652Z,76.65
2017-12-29T23:50:42.055Z,76.47
2017-12-29T23:53:09.466Z,76.46
2017-12-29T23:55:36.917Z,77.07
2017-12-29T23:58:04.302Z,76.73
